sensor_id;sensor_type;location;lat;lon;timestamp;pressure;altitude;pressure_sealevel;temperature;humidity
38716;BME280;24833;49.324;8.694;2023-04-21T00:00:03;99444.66;;;7.27;71.89
38716;BME280;24833;49.324;8.694;2023-04-21T00:02:34;99460.78;;;7.26;71.31
38716;BME280;24833;49.324;8.694;2023-04-21T00:05:07;99455.66;;;7.24;71.67
38716;BME280;24833;49.324;8.694;2023-04-21T00:07:40;99461.78;;;7.25;71.91
38716;BME280;24833;49.324;8.694;2023-04-21T00:10:08;99464.63;;;7.23;71.85
38716;BME280;24833;49.324;8.694;2023-04-21T00:12:36;99467.09;;;7.25;72.62
38716;BME280;24833;49.324;8.694;2023-04-21T00:15:04;99462.81;;;7.24;72.08
38716;BME280;24833;49.324;8.694;2023-04-21T00:17:32;99456.66;;;7.23;72.42
38716;BME280;24833;49.324;8.694;2023-04-21T00:19:59;99455.03;;;7.22;72.79
38716;BME280;24833;49.324;8.694;2023-04-21T00:22:26;99460.34;;;7.22;73.35
38716;BME280;24833;49.324;8.694;2023-04-21T00:24:53;99454.38;;;7.20;72.93
38716;BME280;24833;49.324;8.694;2023-04-21T00:27:20;99452.72;;;7.19;72.25
38716;BME280;24833;49.324;8.694;2023-04-21T00:29:47;99448.41;;;7.18;72.48
38716;BME280;24833;49.324;8.694;2023-04-21T00:32:14;99452.09;;;7.17;72.95
38716;BME280;24833;49.324;8.694;2023-04-21T00:34:42;99446.09;;;7.15;73.17
38716;BME280;24833;49.324;8.694;2023-04-21T00:37:11;99437.50;;;7.13;72.55
38716;BME280;24833;49.324;8.694;2023-04-21T00:39:38;99437.50;;;7.13;73.14
38716;BME280;24833;49.324;8.694;2023-04-21T00:42:05;99447.50;;;7.11;72.89
38716;BME280;24833;49.324;8.694;2023-04-21T00:44:34;99443.19;;;7.10;72.68
38716;BME280;24833;49.324;8.694;2023-04-21T00:47:02;99440.69;;;7.08;73.25
38716;BME280;24833;49.324;8.694;2023-04-21T00:49:29;99442.53;;;7.08;73.08
38716;BME280;24833;49.324;8.694;2023-04-21T00:51:57;99439.06;;;7.07;73.61
38716;BME280;24833;49.324;8.694;2023-04-21T00:54:24;99443.53;;;7.07;73.97
38716;BME280;24833;49.324;8.694;2023-04-21T00:56:54;99437.41;;;7.06;73.96
38716;BME280;24833;49.324;8.694;2023-04-21T00:59:21;99436.59;;;7.06;73.25
38716;BME280;24833;49.324;8.694;2023-04-21T01:01:48;99436.78;;;7.04;73.24
38716;BME280;24833;49.324;8.694;2023-04-21T01:04:15;99432.47;;;7.03;73.44
38716;BME280;24833;49.324;8.694;2023-04-21T01:06:42;99428.19;;;7.02;73.64
38716;BME280;24833;49.324;8.694;2023-04-21T01:09:10;99429.97;;;7.02;73.99
38716;BME280;24833;49.324;8.694;2023-04-21T01:11:39;99433.66;;;7.01;73.76
38716;BME280;24833;49.324;8.694;2023-04-21T01:14:06;99426.69;;;7.00;73.50
38716;BME280;24833;49.324;8.694;2023-04-21T01:16:33;99419.75;;;6.99;73.57
38716;BME280;24833;49.324;8.694;2023-04-21T01:19:00;99424.41;;;6.97;73.27
38716;BME280;24833;49.324;8.694;2023-04-21T01:21:28;99415.63;;;6.96;73.36
38716;BME280;24833;49.324;8.694;2023-04-21T01:24:00;99424.56;;;6.95;73.06
38716;BME280;24833;49.324;8.694;2023-04-21T01:26:27;99415.16;;;6.93;72.80
38716;BME280;24833;49.324;8.694;2023-04-21T01:28:56;99425.78;;;6.93;73.14
38716;BME280;24833;49.324;8.694;2023-04-21T01:31:23;99426.59;;;6.93;74.10
38716;BME280;24833;49.324;8.694;2023-04-21T01:33:50;99424.75;;;6.94;74.27
38716;BME280;24833;49.324;8.694;2023-04-21T01:36:17;99418.44;;;6.95;74.01
38716;BME280;24833;49.324;8.694;2023-04-21T01:38:44;99426.41;;;6.95;73.94
38716;BME280;24833;49.324;8.694;2023-04-21T01:41:13;99429.06;;;6.95;74.12
38716;BME280;24833;49.324;8.694;2023-04-21T01:43:40;99430.06;;;6.94;74.01
38716;BME280;24833;49.324;8.694;2023-04-21T01:46:07;99420.47;;;6.93;73.81
38716;BME280;24833;49.324;8.694;2023-04-21T01:48:36;99425.78;;;6.93;73.50
38716;BME280;24833;49.324;8.694;2023-04-21T01:51:05;99423.31;;;6.91;73.66
38716;BME280;24833;49.324;8.694;2023-04-21T01:53:32;99427.78;;;6.91;73.62
38716;BME280;24833;49.324;8.694;2023-04-21T01:56:00;99433.28;;;6.89;73.77
38716;BME280;24833;49.324;8.694;2023-04-21T01:58:30;99430.78;;;6.88;74.14
38716;BME280;24833;49.324;8.694;2023-04-21T02:00:57;99430.16;;;6.86;73.73
38716;BME280;24833;49.324;8.694;2023-04-21T02:03:24;99424.84;;;6.86;74.03
38716;BME280;24833;49.324;8.694;2023-04-21T02:05:51;99422.38;;;6.84;74.65
38716;BME280;24833;49.324;8.694;2023-04-21T02:08:18;99417.25;;;6.82;74.11
38716;BME280;24833;49.324;8.694;2023-04-21T02:10:45;99416.59;;;6.80;73.64
38716;BME280;24833;49.324;8.694;2023-04-21T02:13:12;99421.06;;;6.80;73.87
38716;BME280;24833;49.324;8.694;2023-04-21T02:15:39;99431.69;;;6.80;73.85
38716;BME280;24833;49.324;8.694;2023-04-21T02:18:06;99432.88;;;6.77;74.03
38716;BME280;24833;49.324;8.694;2023-04-21T02:20:34;99435.72;;;6.76;73.98
38716;BME280;24833;49.324;8.694;2023-04-21T02:23:01;99428.94;;;6.73;73.75
38716;BME280;24833;49.324;8.694;2023-04-21T02:25:28;99437.91;;;6.72;74.13
38716;BME280;24833;49.324;8.694;2023-04-21T02:27:56;99433.59;;;6.71;74.25
38716;BME280;24833;49.324;8.694;2023-04-21T02:30:26;99432.97;;;6.69;74.16
38716;BME280;24833;49.324;8.694;2023-04-21T02:32:53;99428.63;;;6.68;74.49
38716;BME280;24833;49.324;8.694;2023-04-21T02:35:20;99435.13;;;6.66;74.08
38716;BME280;24833;49.324;8.694;2023-04-21T02:37:49;99435.13;;;6.66;74.26
38716;BME280;24833;49.324;8.694;2023-04-21T02:40:16;99442.09;;;6.67;74.33
38716;BME280;24833;49.324;8.694;2023-04-21T02:42:43;99444.91;;;6.65;74.31
38716;BME280;24833;49.324;8.694;2023-04-21T02:45:11;99444.09;;;6.65;75.24
38716;BME280;24833;49.324;8.694;2023-04-21T02:47:38;99441.63;;;6.63;74.17
38716;BME280;24833;49.324;8.694;2023-04-21T02:50:05;99433.00;;;6.61;74.80
38716;BME280;24833;49.324;8.694;2023-04-21T02:52:36;99430.53;;;6.60;74.01
38716;BME280;24833;49.324;8.694;2023-04-21T02:55:04;99431.72;;;6.57;73.87
38716;BME280;24833;49.324;8.694;2023-04-21T02:57:31;99428.41;;;6.55;73.84
38716;BME280;24833;49.324;8.694;2023-04-21T02:59:59;99419.81;;;6.53;73.92
38716;BME280;24833;49.324;8.694;2023-04-21T03:02:26;99424.47;;;6.51;73.70
38716;BME280;24833;49.324;8.694;2023-04-21T03:04:53;99423.84;;;6.49;73.59
38716;BME280;24833;49.324;8.694;2023-04-21T03:07:20;99422.16;;;6.48;74.09
38716;BME280;24833;49.324;8.694;2023-04-21T03:09:47;99432.13;;;6.46;73.76
38716;BME280;24833;49.324;8.694;2023-04-21T03:12:14;99433.16;;;6.45;74.43
38716;BME280;24833;49.324;8.694;2023-04-21T03:14:43;99435.97;;;6.43;74.11
38716;BME280;24833;49.324;8.694;2023-04-21T03:17:10;99432.66;;;6.41;73.90
38716;BME280;24833;49.324;8.694;2023-04-21T03:19:37;99431.00;;;6.40;74.01
38716;BME280;24833;49.324;8.694;2023-04-21T03:22:04;99416.94;;;6.40;74.38
38716;BME280;24833;49.324;8.694;2023-04-21T03:24:32;99425.25;;;6.37;74.25
38716;BME280;24833;49.324;8.694;2023-04-21T03:26:59;99414.66;;;6.37;74.13
38716;BME280;24833;49.324;8.694;2023-04-21T03:29:27;99421.78;;;6.36;73.95
38716;BME280;24833;49.324;8.694;2023-04-21T03:31:54;99419.13;;;6.36;74.09
38716;BME280;24833;49.324;8.694;2023-04-21T03:34:22;99413.97;;;6.35;74.18
38716;BME280;24833;49.324;8.694;2023-04-21T03:36:49;99424.59;;;6.35;74.36
38716;BME280;24833;49.324;8.694;2023-04-21T03:39:16;99423.78;;;6.34;73.99
38716;BME280;24833;49.324;8.694;2023-04-21T03:41:47;99429.91;;;6.35;74.28
38716;BME280;24833;49.324;8.694;2023-04-21T03:44:14;99435.19;;;6.35;74.24
38716;BME280;24833;49.324;8.694;2023-04-21T03:46:41;99428.91;;;6.36;74.55
38716;BME280;24833;49.324;8.694;2023-04-21T03:49:08;99427.25;;;6.35;74.32
38716;BME280;24833;49.324;8.694;2023-04-21T03:51:35;99429.91;;;6.35;74.97
38716;BME280;24833;49.324;8.694;2023-04-21T03:54:02;99410.50;;;6.34;74.17
38716;BME280;24833;49.324;8.694;2023-04-21T03:56:29;99417.66;;;6.34;74.12
38716;BME280;24833;49.324;8.694;2023-04-21T03:58:56;99419.66;;;6.32;74.25
38716;BME280;24833;49.324;8.694;2023-04-21T04:01:23;99423.13;;;6.32;74.05
38716;BME280;24833;49.324;8.694;2023-04-21T04:03:50;99418.00;;;6.31;74.07
38716;BME280;24833;49.324;8.694;2023-04-21T04:06:17;99417.34;;;6.28;74.04
38716;BME280;24833;49.324;8.694;2023-04-21T04:08:44;99410.41;;;6.27;74.42
38716;BME280;24833;49.324;8.694;2023-04-21T04:11:12;99414.06;;;6.26;74.30
38716;BME280;24833;49.324;8.694;2023-04-21T04:13:39;99413.22;;;6.26;73.94
38716;BME280;24833;49.324;8.694;2023-04-21T04:16:06;99415.06;;;6.25;74.25
38716;BME280;24833;49.324;8.694;2023-04-21T04:18:33;99410.75;;;6.24;74.21
38716;BME280;24833;49.324;8.694;2023-04-21T04:21:07;99415.25;;;6.24;74.12
38716;BME280;24833;49.324;8.694;2023-04-21T04:23:34;99411.75;;;6.23;74.09
38716;BME280;24833;49.324;8.694;2023-04-21T04:26:01;99416.25;;;6.23;74.14
38716;BME280;24833;49.324;8.694;2023-04-21T04:28:31;99414.41;;;6.23;74.11
38716;BME280;24833;49.324;8.694;2023-04-21T04:30:58;99418.06;;;6.22;74.96
38716;BME280;24833;49.324;8.694;2023-04-21T04:33:26;99418.22;;;6.21;73.92
38716;BME280;24833;49.324;8.694;2023-04-21T04:35:53;99407.81;;;6.19;74.04
38716;BME280;24833;49.324;8.694;2023-04-21T04:38:20;99410.47;;;6.19;74.04
38716;BME280;24833;49.324;8.694;2023-04-21T04:40:55;99402.88;;;6.16;73.64
38716;BME280;24833;49.324;8.694;2023-04-21T04:43:23;99406.53;;;6.15;73.77
38716;BME280;24833;49.324;8.694;2023-04-21T04:45:51;99404.84;;;6.14;74.13
38716;BME280;24833;49.324;8.694;2023-04-21T04:48:18;99413.81;;;6.13;74.06
38716;BME280;24833;49.324;8.694;2023-04-21T04:50:45;99417.47;;;6.12;73.72
38716;BME280;24833;49.324;8.694;2023-04-21T04:53:12;99423.78;;;6.11;73.98
38716;BME280;24833;49.324;8.694;2023-04-21T04:55:39;99418.47;;;6.11;73.89
38716;BME280;24833;49.324;8.694;2023-04-21T04:58:06;99413.16;;;6.11;73.79
38716;BME280;24833;49.324;8.694;2023-04-21T05:00:33;99417.47;;;6.12;73.80
38716;BME280;24833;49.324;8.694;2023-04-21T05:03:00;99429.72;;;6.13;73.92
38716;BME280;24833;49.324;8.694;2023-04-21T05:05:27;99428.88;;;6.13;73.88
38716;BME280;24833;49.324;8.694;2023-04-21T05:07:54;99433.38;;;6.12;74.09
38716;BME280;24833;49.324;8.694;2023-04-21T05:10:22;99432.38;;;6.13;73.82
38716;BME280;24833;49.324;8.694;2023-04-21T05:12:49;99433.19;;;6.14;73.84
38716;BME280;24833;49.324;8.694;2023-04-21T05:15:16;99440.13;;;6.15;73.97
38716;BME280;24833;49.324;8.694;2023-04-21T05:17:44;99445.09;;;6.18;73.79
38716;BME280;24833;49.324;8.694;2023-04-21T05:20:11;99448.56;;;6.18;73.85
38716;BME280;24833;49.324;8.694;2023-04-21T05:22:38;99449.41;;;6.19;73.87
38716;BME280;24833;49.324;8.694;2023-04-21T05:25:06;99449.22;;;6.20;73.61
38716;BME280;24833;49.324;8.694;2023-04-21T05:27:33;99447.22;;;6.22;74.11
38716;BME280;24833;49.324;8.694;2023-04-21T05:30:00;99441.75;;;6.24;74.17
38716;BME280;24833;49.324;8.694;2023-04-21T05:32:27;99439.91;;;6.24;74.30
38716;BME280;24833;49.324;8.694;2023-04-21T05:34:55;99444.03;;;6.27;73.93
38716;BME280;24833;49.324;8.694;2023-04-21T05:37:22;99442.22;;;6.27;74.13
38716;BME280;24833;49.324;8.694;2023-04-21T05:39:50;99457.09;;;6.28;73.90
38716;BME280;24833;49.324;8.694;2023-04-21T05:42:17;99455.13;;;6.31;74.44
38716;BME280;24833;49.324;8.694;2023-04-21T05:44:44;99462.91;;;6.32;74.37
38716;BME280;24833;49.324;8.694;2023-04-21T05:47:11;99467.19;;;6.33;74.20
38716;BME280;24833;49.324;8.694;2023-04-21T05:49:38;99465.38;;;6.34;73.81
38716;BME280;24833;49.324;8.694;2023-04-21T05:52:07;99473.69;;;6.31;73.82
38716;BME280;24833;49.324;8.694;2023-04-21T05:54:34;99467.72;;;6.28;73.67
38716;BME280;24833;49.324;8.694;2023-04-21T05:57:01;99472.38;;;6.26;74.07
38716;BME280;24833;49.324;8.694;2023-04-21T05:59:28;99471.72;;;6.24;73.91
38716;BME280;24833;49.324;8.694;2023-04-21T06:01:55;99477.03;;;6.24;73.82
38716;BME280;24833;49.324;8.694;2023-04-21T06:04:22;99475.22;;;6.25;74.74
38716;BME280;24833;49.324;8.694;2023-04-21T06:06:49;99471.38;;;6.27;74.08
38716;BME280;24833;49.324;8.694;2023-04-21T06:09:17;99473.69;;;6.31;74.13
38716;BME280;24833;49.324;8.694;2023-04-21T06:11:44;99487.59;;;6.33;75.16
38716;BME280;24833;49.324;8.694;2023-04-21T06:14:12;99491.69;;;6.35;74.82
38716;BME280;24833;49.324;8.694;2023-04-21T06:16:38;99485.06;;;6.39;74.50
38716;BME280;24833;49.324;8.694;2023-04-21T06:19:05;99484.88;;;6.41;74.94
38716;BME280;24833;49.324;8.694;2023-04-21T06:21:32;99483.53;;;6.45;75.14
38716;BME280;24833;49.324;8.694;2023-04-21T06:23:59;99478.06;;;6.46;75.46
38716;BME280;24833;49.324;8.694;2023-04-21T06:26:26;99481.34;;;6.48;75.34
38716;BME280;24833;49.324;8.694;2023-04-21T06:28:53;99479.00;;;6.53;75.55
38716;BME280;24833;49.324;8.694;2023-04-21T06:31:20;99475.19;;;6.56;75.99
38716;BME280;24833;49.324;8.694;2023-04-21T06:33:47;99483.59;;;6.60;76.01
38716;BME280;24833;49.324;8.694;2023-04-21T06:36:14;99487.38;;;6.65;75.83
38716;BME280;24833;49.324;8.694;2023-04-21T06:38:43;99488.50;;;6.71;75.57
38716;BME280;24833;49.324;8.694;2023-04-21T06:41:10;99490.44;;;6.77;75.83
38716;BME280;24833;49.324;8.694;2023-04-21T06:43:37;99483.59;;;6.82;76.48
38716;BME280;24833;49.324;8.694;2023-04-21T06:46:05;99481.22;;;6.88;76.94
38716;BME280;24833;49.324;8.694;2023-04-21T06:48:31;99486.63;;;6.94;76.33
38716;BME280;24833;49.324;8.694;2023-04-21T06:50:58;99478.78;;;7.01;76.77
38716;BME280;24833;49.324;8.694;2023-04-21T06:53:27;99482.53;;;7.06;77.56
38716;BME280;24833;49.324;8.694;2023-04-21T06:55:53;99482.00;;;7.11;76.72
38716;BME280;24833;49.324;8.694;2023-04-21T06:58:21;99473.50;;;7.16;77.88
38716;BME280;24833;49.324;8.694;2023-04-21T07:00:48;99468.47;;;7.21;76.86
38716;BME280;24833;49.324;8.694;2023-04-21T07:03:15;99472.22;;;7.26;76.64
38716;BME280;24833;49.324;8.694;2023-04-21T07:05:42;99468.84;;;7.32;77.37
38716;BME280;24833;49.324;8.694;2023-04-21T07:08:09;99457.50;;;7.38;76.81
38716;BME280;24833;49.324;8.694;2023-04-21T07:10:36;99448.16;;;7.43;76.74
38716;BME280;24833;49.324;8.694;2023-04-21T07:13:03;99438.47;;;7.50;76.63
38716;BME280;24833;49.324;8.694;2023-04-21T07:15:30;99445.41;;;7.51;76.10
38716;BME280;24833;49.324;8.694;2023-04-21T07:17:57;99450.34;;;7.54;76.23
38716;BME280;24833;49.324;8.694;2023-04-21T07:20:25;99449.16;;;7.56;76.28
38716;BME280;24833;49.324;8.694;2023-04-21T07:22:52;99454.91;;;7.60;76.37
38716;BME280;24833;49.324;8.694;2023-04-21T07:25:19;99458.22;;;7.62;76.63
38716;BME280;24833;49.324;8.694;2023-04-21T07:27:46;99463.16;;;7.65;76.19
38716;BME280;24833;49.324;8.694;2023-04-21T07:30:13;99461.97;;;7.68;75.90
38716;BME280;24833;49.324;8.694;2023-04-21T07:32:41;99460.78;;;7.70;76.27
38716;BME280;24833;49.324;8.694;2023-04-21T07:35:08;99459.03;;;7.77;76.47
38716;BME280;24833;49.324;8.694;2023-04-21T07:37:35;99449.50;;;7.83;77.47
38716;BME280;24833;49.324;8.694;2023-04-21T07:40:02;99451.84;;;7.92;77.07
38716;BME280;24833;49.324;8.694;2023-04-21T07:42:29;99450.56;;;8.03;77.55
38716;BME280;24833;49.324;8.694;2023-04-21T07:44:56;99455.22;;;8.16;76.96
38716;BME280;24833;49.324;8.694;2023-04-21T07:47:23;99445.91;;;8.27;77.46
38716;BME280;24833;49.324;8.694;2023-04-21T07:49:50;99445.44;;;8.38;77.17
38716;BME280;24833;49.324;8.694;2023-04-21T07:52:17;99447.78;;;8.48;77.14
38716;BME280;24833;49.324;8.694;2023-04-21T07:54:44;99440.31;;;8.58;77.34
38716;BME280;24833;49.324;8.694;2023-04-21T07:57:11;99428.31;;;8.68;77.38
38716;BME280;24833;49.324;8.694;2023-04-21T07:59:38;99433.94;;;8.80;77.33
38716;BME280;24833;49.324;8.694;2023-04-21T08:02:06;99436.72;;;8.93;77.82
38716;BME280;24833;49.324;8.694;2023-04-21T08:04:33;99435.16;;;9.06;77.83
38716;BME280;24833;49.324;8.694;2023-04-21T08:07:01;99441.41;;;9.19;77.32
38716;BME280;24833;49.324;8.694;2023-04-21T08:09:28;99446.00;;;9.32;77.84
38716;BME280;24833;49.324;8.694;2023-04-21T08:11:55;99440.75;;;9.45;77.91
38716;BME280;24833;49.324;8.694;2023-04-21T08:14:23;99442.91;;;9.63;78.16
38716;BME280;24833;49.324;8.694;2023-04-21T08:16:52;99434.75;;;9.78;77.90
38716;BME280;24833;49.324;8.694;2023-04-21T08:19:23;99439.34;;;9.91;77.79
38716;BME280;24833;49.324;8.694;2023-04-21T08:21:50;99432.38;;;10.03;78.30
38716;BME280;24833;49.324;8.694;2023-04-21T08:24:17;99430.97;;;10.14;77.95
38716;BME280;24833;49.324;8.694;2023-04-21T08:26:44;99433.31;;;10.23;77.67
38716;BME280;24833;49.324;8.694;2023-04-21T08:29:11;99434.97;;;10.31;77.61
38716;BME280;24833;49.324;8.694;2023-04-21T08:31:39;99438.69;;;10.36;77.56
38716;BME280;24833;49.324;8.694;2023-04-21T08:34:06;99438.69;;;10.43;77.78
38716;BME280;24833;49.324;8.694;2023-04-21T08:36:33;99437.66;;;10.51;77.60
38716;BME280;24833;49.324;8.694;2023-04-21T08:39:01;99434.78;;;10.59;77.87
38716;BME280;24833;49.324;8.694;2023-04-21T08:41:28;99425.56;;;10.68;77.66
38716;BME280;24833;49.324;8.694;2023-04-21T08:43:55;99419.81;;;10.78;78.02
38716;BME280;24833;49.324;8.694;2023-04-21T08:46:22;99419.81;;;10.91;78.45
38716;BME280;24833;49.324;8.694;2023-04-21T08:48:49;99416.09;;;11.05;78.72
38716;BME280;24833;49.324;8.694;2023-04-21T08:51:22;99418.09;;;11.23;78.72
38716;BME280;24833;49.324;8.694;2023-04-21T08:53:50;99420.13;;;11.41;78.88
38716;BME280;24833;49.324;8.694;2023-04-21T08:56:18;99421.34;;;11.58;78.67
38716;BME280;24833;49.324;8.694;2023-04-21T08:58:45;99426.81;;;11.77;78.76
38716;BME280;24833;49.324;8.694;2023-04-21T09:01:12;99423.09;;;11.91;78.91
38716;BME280;24833;49.324;8.694;2023-04-21T09:03:39;99416.63;;;12.05;78.63
38716;BME280;24833;49.324;8.694;2023-04-21T09:06:08;99413.25;;;12.16;78.42
38716;BME280;24833;49.324;8.694;2023-04-21T09:08:41;99419.81;;;12.27;78.61
38716;BME280;24833;49.324;8.694;2023-04-21T09:11:13;99409.22;;;12.39;78.50
38716;BME280;24833;49.324;8.694;2023-04-21T09:13:42;99405.25;;;12.48;77.46
38716;BME280;24833;49.324;8.694;2023-04-21T09:16:18;99404.78;;;12.58;77.81
38716;BME280;24833;49.324;8.694;2023-04-21T09:18:47;99400.38;;;12.63;77.66
38716;BME280;24833;49.324;8.694;2023-04-21T09:21:17;99401.78;;;12.72;77.64
38716;BME280;24833;49.324;8.694;2023-04-21T09:23:50;99399.03;;;12.79;77.66
38716;BME280;24833;49.324;8.694;2023-04-21T09:26:20;99395.47;;;12.85;77.24
38716;BME280;24833;49.324;8.694;2023-04-21T09:28:50;99392.75;;;12.92;77.07
38716;BME280;24833;49.324;8.694;2023-04-21T09:31:21;99384.25;;;12.95;76.16
38716;BME280;24833;49.324;8.694;2023-04-21T09:33:56;99396.19;;;12.99;75.75
38716;BME280;24833;49.324;8.694;2023-04-21T09:36:29;99398.34;;;13.08;76.77
38716;BME280;24833;49.324;8.694;2023-04-21T09:41:28;99395.72;;;13.27;76.31
38716;BME280;24833;49.324;8.694;2023-04-21T09:43:55;99384.13;;;13.33;76.48
38716;BME280;24833;49.324;8.694;2023-04-21T09:46:29;99383.00;;;13.41;77.17
38716;BME280;24833;49.324;8.694;2023-04-21T09:49:00;99387.00;;;13.50;77.07
38716;BME280;24833;49.324;8.694;2023-04-21T09:51:29;99386.94;;;13.56;76.62
38716;BME280;24833;49.324;8.694;2023-04-21T09:54:19;99386.41;;;13.66;77.00
38716;BME280;24833;49.324;8.694;2023-04-21T09:56:59;99385.88;;;13.76;77.17
38716;BME280;24833;49.324;8.694;2023-04-21T09:59:36;99386.16;;;13.86;77.06
38716;BME280;24833;49.324;8.694;2023-04-21T10:02:06;99380.25;;;13.96;76.84
38716;BME280;24833;49.324;8.694;2023-04-21T10:04:35;99383.66;;;14.03;76.95
38716;BME280;24833;49.324;8.694;2023-04-21T10:07:03;99383.31;;;14.11;77.07
38716;BME280;24833;49.324;8.694;2023-04-21T10:09:39;99381.41;;;14.18;76.83
38716;BME280;24833;49.324;8.694;2023-04-21T10:12:08;99378.97;;;14.28;77.14
38716;BME280;24833;49.324;8.694;2023-04-21T10:14:36;99375.50;;;14.39;76.71
38716;BME280;24833;49.324;8.694;2023-04-21T10:17:06;99378.25;;;14.51;77.01
38716;BME280;24833;49.324;8.694;2023-04-21T10:19:35;99371.72;;;14.59;74.93
38716;BME280;24833;49.324;8.694;2023-04-21T10:22:07;99379.06;;;14.63;73.91
38716;BME280;24833;49.324;8.694;2023-04-21T10:24:40;99374.88;;;14.67;73.84
38716;BME280;24833;49.324;8.694;2023-04-21T10:27:11;99368.81;;;14.72;74.25
38716;BME280;24833;49.324;8.694;2023-04-21T10:29:57;99370.31;;;14.80;74.27
38716;BME280;24833;49.324;8.694;2023-04-21T10:32:41;99370.34;;;14.91;74.75
38716;BME280;24833;49.324;8.694;2023-04-21T10:35:22;99366.34;;;14.94;72.98
38716;BME280;24833;49.324;8.694;2023-04-21T10:37:50;99362.47;;;15.02;73.72
38716;BME280;24833;49.324;8.694;2023-04-21T10:43:44;99354.75;;;15.17;74.27
38716;BME280;24833;49.324;8.694;2023-04-21T10:46:51;99353.34;;;15.26;75.25
38716;BME280;24833;49.324;8.694;2023-04-21T10:49:28;99346.53;;;15.35;74.72
38716;BME280;24833;49.324;8.694;2023-04-21T10:54:43;99348.59;;;15.57;75.27
38716;BME280;24833;49.324;8.694;2023-04-21T10:57:31;99343.06;;;15.75;77.19
38716;BME280;24833;49.324;8.694;2023-04-21T10:59:58;99337.28;;;15.83;74.19
38716;BME280;24833;49.324;8.694;2023-04-21T11:02:26;99325.25;;;16.02;73.99
38716;BME280;24833;49.324;8.694;2023-04-21T11:04:53;99311.66;;;16.26;76.26
38716;BME280;24833;49.324;8.694;2023-04-21T11:07:24;99306.91;;;16.50;75.98
38716;BME280;24833;49.324;8.694;2023-04-21T11:10:00;99304.22;;;16.67;73.66
38716;BME280;24833;49.324;8.694;2023-04-21T11:12:38;99305.19;;;16.94;75.44
38716;BME280;24833;49.324;8.694;2023-04-21T11:15:08;99297.94;;;17.16;75.00
38716;BME280;24833;49.324;8.694;2023-04-21T11:17:36;99295.53;;;17.42;76.62
38716;BME280;24833;49.324;8.694;2023-04-21T11:20:09;99290.75;;;17.71;76.02
38716;BME280;24833;49.324;8.694;2023-04-21T11:22:36;99295.94;;;18.00;75.67
38716;BME280;24833;49.324;8.694;2023-04-21T11:25:05;99298.28;;;18.23;75.19
38716;BME280;24833;49.324;8.694;2023-04-21T11:27:32;99307.38;;;18.44;74.07
38716;BME280;24833;49.324;8.694;2023-04-21T11:30:02;99296.69;;;18.59;71.86
38716;BME280;24833;49.324;8.694;2023-04-21T11:32:29;99308.22;;;18.82;72.43
38716;BME280;24833;49.324;8.694;2023-04-21T11:34:56;99298.63;;;19.06;73.27
38716;BME280;24833;49.324;8.694;2023-04-21T11:37:25;99292.22;;;19.22;72.70
38716;BME280;24833;49.324;8.694;2023-04-21T11:40:00;99293.88;;;19.33;69.58
38716;BME280;24833;49.324;8.694;2023-04-21T11:42:27;99297.16;;;19.41;69.62
38716;BME280;24833;49.324;8.694;2023-04-21T11:44:55;99298.56;;;19.53;69.55
38716;BME280;24833;49.324;8.694;2023-04-21T11:47:25;99289.69;;;19.68;70.22
38716;BME280;24833;49.324;8.694;2023-04-21T11:49:55;99287.00;;;19.73;66.54
38716;BME280;24833;49.324;8.694;2023-04-21T11:52:33;99279.44;;;19.80;67.51
38716;BME280;24833;49.324;8.694;2023-04-21T11:55:12;99282.13;;;19.85;66.71
38716;BME280;24833;49.324;8.694;2023-04-21T11:57:41;99294.09;;;19.95;66.50
38716;BME280;24833;49.324;8.694;2023-04-21T12:00:10;99287.84;;;20.04;67.41
38716;BME280;24833;49.324;8.694;2023-04-21T12:02:38;99280.56;;;20.20;67.70
38716;BME280;24833;49.324;8.694;2023-04-21T12:07:44;99274.56;;;20.23;65.28
38716;BME280;24833;49.324;8.694;2023-04-21T12:10:16;99269.44;;;20.17;63.89
38716;BME280;24833;49.324;8.694;2023-04-21T12:12:43;99295.72;;;20.06;61.41
38716;BME280;24833;49.324;8.694;2023-04-21T12:15:17;99275.63;;;19.76;59.89
38716;BME280;24833;49.324;8.694;2023-04-21T12:17:50;99277.22;;;19.67;61.79
38716;BME280;24833;49.324;8.694;2023-04-21T12:20:21;99270.72;;;19.63;62.73
38716;BME280;24833;49.324;8.694;2023-04-21T12:22:49;99281.00;;;19.61;61.65
38716;BME280;24833;49.324;8.694;2023-04-21T12:25:16;99274.69;;;19.50;59.65
38716;BME280;24833;49.324;8.694;2023-04-21T12:27:51;99288.53;;;19.54;62.20
38716;BME280;24833;49.324;8.694;2023-04-21T12:30:20;99282.63;;;19.72;65.65
38716;BME280;24833;49.324;8.694;2023-04-21T12:32:47;99281.06;;;19.92;66.49
38716;BME280;24833;49.324;8.694;2023-04-21T12:35:14;99273.50;;;20.09;64.26
38716;BME280;24833;49.324;8.694;2023-04-21T12:37:41;99277.84;;;20.20;64.58
38716;BME280;24833;49.324;8.694;2023-04-21T12:40:09;99269.16;;;20.23;63.33
38716;BME280;24833;49.324;8.694;2023-04-21T12:42:36;99267.50;;;20.12;60.77
38716;BME280;24833;49.324;8.694;2023-04-21T12:45:05;99252.34;;;20.16;60.13
38716;BME280;24833;49.324;8.694;2023-04-21T12:47:33;99253.44;;;20.20;63.00
38716;BME280;24833;49.324;8.694;2023-04-21T12:50:01;99251.00;;;20.29;63.91
38716;BME280;24833;49.324;8.694;2023-04-21T12:52:28;99246.91;;;20.36;63.47
38716;BME280;24833;49.324;8.694;2023-04-21T12:54:55;99253.44;;;20.40;61.92
38716;BME280;24833;49.324;8.694;2023-04-21T12:57:22;99259.94;;;20.45;63.94
38716;BME280;24833;49.324;8.694;2023-04-21T12:59:48;99242.56;;;20.30;58.29
38716;BME280;24833;49.324;8.694;2023-04-21T13:02:15;99245.56;;;20.24;59.85
38716;BME280;24833;49.324;8.694;2023-04-21T13:04:43;99250.44;;;20.11;58.74
38716;BME280;24833;49.324;8.694;2023-04-21T13:07:10;99249.09;;;20.14;60.78
38716;BME280;24833;49.324;8.694;2023-04-21T13:09:37;99241.50;;;20.11;59.66
38716;BME280;24833;49.324;8.694;2023-04-21T13:12:04;99234.72;;;20.08;62.20
38716;BME280;24833;49.324;8.694;2023-04-21T13:14:32;99239.31;;;20.28;63.71
38716;BME280;24833;49.324;8.694;2023-04-21T13:16:59;99228.72;;;20.32;59.05
38716;BME280;24833;49.324;8.694;2023-04-21T13:19:26;99233.38;;;20.26;59.21
38716;BME280;24833;49.324;8.694;2023-04-21T13:21:54;99223.31;;;20.37;61.17
38716;BME280;24833;49.324;8.694;2023-04-21T13:24:22;99228.47;;;20.33;59.38